createdAt,value
2018-09-11T00:00:12.988Z,73.60
2018-09-11T00:02:56.197Z,73.70
2018-09-11T00:05:39.297Z,74.00
2018-09-11T00:08:20.970Z,74.00
2018-09-11T00:11:03.968Z,74.40
2018-09-11T00:13:44.686Z,74.60
2018-09-11T00:16:27.755Z,74.90
2018-09-11T00:19:10.193Z,75.10
2018-09-11T00:21:52.516Z,75.30
2018-09-11T00:24:35.849Z,75.20
2018-09-11T00:27:19.607Z,75.40
2018-09-11T00:30:03.055Z,75.30
2018-09-11T00:32:45.578Z,75.80
2018-09-11T00:35:26.277Z,75.90
2018-09-11T00:38:08.139Z,76.00
2018-09-11T00:40:49.848Z,76.20
2018-09-11T00:43:30.283Z,76.20
2018-09-11T00:46:11.265Z,76.50
2018-09-11T00:48:51.846Z,76.50
2018-09-11T00:51:33.849Z,76.80
2018-09-11T00:54:14.766Z,77.10
2018-09-11T00:56:56.718Z,77.30
2018-09-11T00:59:39.143Z,77.60
2018-09-11T01:02:20.910Z,78.10
2018-09-11T01:05:02.444Z,78.20
2018-09-11T01:07:42.520Z,78.10
2018-09-11T01:10:24.927Z,78.60
2018-09-11T01:13:06.045Z,78.50
2018-09-11T01:15:47.822Z,78.60
2018-09-11T01:18:30.992Z,78.70
2018-09-11T01:21:12.737Z,78.60
2018-09-11T01:23:53.683Z,78.90
2018-09-11T01:26:34.732Z,79.40
2018-09-11T01:29:15.396Z,79.80
2018-09-11T01:31:55.570Z,79.60
2018-09-11T01:34:36.276Z,80.00
2018-09-11T01:37:17.850Z,79.60
2018-09-11T01:39:58.089Z,79.70
2018-09-11T01:42:40.458Z,79.40
2018-09-11T01:45:23.066Z,79.70
2018-09-11T01:48:04.849Z,79.60
2018-09-11T01:50:45.807Z,79.60
2018-09-11T01:53:27.945Z,79.60
2018-09-11T01:56:08.916Z,79.60
2018-09-11T01:58:47.814Z,79.70
2018-09-11T02:01:28.576Z,79.60
2018-09-11T02:04:09.911Z,79.80
2018-09-11T02:06:52.413Z,80.10
2018-09-11T02:09:34.374Z,79.80
2018-09-11T02:12:18.216Z,79.70
2018-09-11T02:15:00.266Z,80.10
2018-09-11T02:17:43.495Z,80.70
2018-09-11T02:20:20.825Z,79.90
2018-09-11T02:23:00.119Z,79.80
2018-09-11T02:25:42.878Z,79.60
2018-09-11T02:28:25.443Z,80.00
2018-09-11T02:31:06.682Z,80.20
2018-09-11T02:33:48.889Z,80.00
2018-09-11T02:36:30.362Z,80.00
2018-09-11T02:39:16.245Z,79.30
2018-09-11T02:41:58.398Z,79.50
2018-09-11T02:44:40.513Z,79.40
2018-09-11T02:47:23.631Z,79.60
2018-09-11T02:50:06.854Z,79.50
2018-09-11T02:52:49.799Z,79.50
2018-09-11T02:55:32.891Z,79.50
2018-09-11T02:58:16.219Z,79.30
2018-09-11T03:01:01.088Z,79.10
2018-09-11T03:03:44.512Z,79.10
2018-09-11T03:06:27.301Z,78.90
2018-09-11T03:09:10.089Z,79.10
2018-09-11T03:11:53.397Z,79.00
2018-09-11T03:14:36.744Z,79.10
2018-09-11T03:17:19.732Z,78.90
2018-09-11T03:20:02.967Z,79.00
2018-09-11T03:22:46.734Z,78.90
2018-09-11T03:25:30.069Z,78.80
2018-09-11T03:28:12.970Z,78.60
2018-09-11T03:30:56.334Z,78.90
2018-09-11T03:33:39.757Z,78.80
2018-09-11T03:36:22.835Z,79.00
2018-09-11T03:39:06.611Z,78.90
2018-09-11T03:41:49.911Z,78.70
2018-09-11T03:44:32.890Z,78.70
2018-09-11T03:47:15.431Z,78.70
2018-09-11T03:49:58.156Z,78.70
2018-09-11T03:52:41.790Z,78.80
2018-09-11T03:55:23.714Z,79.10
2018-09-11T03:58:06.432Z,78.90
2018-09-11T04:00:48.829Z,78.80
2018-09-11T04:03:31.796Z,78.70
2018-09-11T04:06:03.169Z,78.80
2018-09-11T04:08:45.099Z,78.60
2018-09-11T04:11:27.238Z,78.60
2018-09-11T04:14:10.401Z,78.70
2018-09-11T04:16:53.933Z,78.90
2018-09-11T04:19:37.156Z,79.00
2018-09-11T04:22:20.361Z,78.80
2018-09-11T04:25:03.589Z,78.70
2018-09-11T04:27:34.738Z,78.80
2018-09-11T04:30:05.671Z,79.00
2018-09-11T04:32:36.136Z,79.00
2018-09-11T04:35:08.021Z,79.60
2018-09-11T04:37:38.571Z,79.30
2018-09-11T04:40:09.220Z,79.30
2018-09-11T04:42:39.814Z,79.30
2018-09-11T04:45:10.395Z,79.30
2018-09-11T04:47:41.037Z,79.70
2018-09-11T04:50:11.905Z,79.40
2018-09-11T04:52:42.455Z,79.90
2018-09-11T04:55:13.058Z,79.80
2018-09-11T04:57:44.031Z,80.00
2018-09-11T05:00:14.601Z,80.30
2018-09-11T05:02:45.111Z,80.20
2018-09-11T05:05:15.688Z,80.50
2018-09-11T05:07:47.264Z,80.50
2018-09-11T05:10:17.819Z,80.30
2018-09-11T05:12:48.317Z,80.40
2018-09-11T05:15:18.859Z,80.40
2018-09-11T05:17:49.437Z,80.40
2018-09-11T05:20:20.026Z,80.40
2018-09-11T05:22:50.674Z,80.40
2018-09-11T05:25:21.577Z,80.00
2018-09-11T05:27:52.138Z,80.00
2018-09-11T05:30:22.718Z,79.80
2018-09-11T05:32:53.283Z,79.70
2018-09-11T05:35:23.987Z,79.80
2018-09-11T05:37:54.597Z,80.00
2018-09-11T05:40:25.202Z,79.90
2018-09-11T05:42:55.753Z,80.20
2018-09-11T05:45:26.365Z,80.00
2018-09-11T05:47:56.945Z,80.30
2018-09-11T05:50:27.711Z,79.80
2018-09-11T05:52:58.241Z,80.00
2018-09-11T05:55:28.858Z,80.30
2018-09-11T05:57:59.402Z,80.20
2018-09-11T06:00:29.967Z,80.40
2018-09-11T06:03:00.499Z,80.00
2018-09-11T06:05:31.067Z,80.30
2018-09-11T06:08:01.610Z,80.20
2018-09-11T06:10:32.177Z,80.40
2018-09-11T06:13:02.794Z,80.40
2018-09-11T06:15:33.374Z,80.30
2018-09-11T06:18:03.997Z,80.10
2018-09-11T06:20:34.635Z,80.00
2018-09-11T06:23:05.277Z,80.00
2018-09-11T06:25:35.927Z,80.10
2018-09-11T06:28:06.487Z,80.10
2018-09-11T06:30:37.085Z,80.20
2018-09-11T06:33:07.655Z,79.80
2018-09-11T06:35:38.352Z,80.00
2018-09-11T06:38:08.898Z,79.80
2018-09-11T06:40:39.606Z,80.10
2018-09-11T06:43:10.245Z,79.70
2018-09-11T06:45:40.916Z,80.00
2018-09-11T06:48:11.581Z,79.80
2018-09-11T06:50:42.126Z,79.90
2018-09-11T06:53:12.662Z,79.60
2018-09-11T06:55:43.191Z,79.90
2018-09-11T06:58:13.813Z,79.80
2018-09-11T07:00:44.542Z,79.70
2018-09-11T07:03:15.055Z,79.70
2018-09-11T07:05:45.685Z,80.00
2018-09-11T07:08:16.267Z,80.20
2018-09-11T07:10:46.858Z,80.10
2018-09-11T07:13:17.386Z,80.90
2018-09-11T07:15:48.049Z,80.50
2018-09-11T07:18:18.561Z,80.30
2018-09-11T07:20:49.133Z,80.10
2018-09-11T07:23:19.645Z,80.30
2018-09-11T07:25:50.233Z,80.10
2018-09-11T07:28:20.688Z,79.90
2018-09-11T07:30:51.477Z,79.90
2018-09-11T07:33:22.042Z,79.60
2018-09-11T07:35:57.695Z,79.40
2018-09-11T07:38:28.219Z,78.80
2018-09-11T07:40:58.880Z,78.60
2018-09-11T07:43:29.414Z,78.40
2018-09-11T07:45:59.933Z,78.20
2018-09-11T07:48:30.486Z,77.80
2018-09-11T07:51:01.095Z,77.50
2018-09-11T07:53:31.647Z,77.20
2018-09-11T07:56:02.182Z,77.00
2018-09-11T07:58:32.806Z,76.70
2018-09-11T08:01:03.443Z,76.30
2018-09-11T08:03:34.003Z,76.00
2018-09-11T08:06:04.649Z,75.60
2018-09-11T08:08:35.314Z,75.20
2018-09-11T08:11:06.015Z,75.10
2018-09-11T08:13:36.565Z,75.30
2018-09-11T08:16:07.146Z,75.30
2018-09-11T08:18:37.741Z,75.20
2018-09-11T08:21:08.708Z,75.10
2018-09-11T08:23:39.274Z,74.80
2018-09-11T08:26:09.929Z,74.60
2018-09-11T08:28:40.492Z,74.70
2018-09-11T08:31:11.043Z,74.30
2018-09-11T08:33:41.727Z,73.80
2018-09-11T08:36:12.388Z,73.90
2018-09-11T08:38:42.963Z,73.80
2018-09-11T08:41:13.522Z,73.70
2018-09-11T08:43:44.083Z,73.60
2018-09-11T08:46:14.723Z,73.70
2018-09-11T08:48:45.365Z,73.60
2018-09-11T08:51:15.985Z,73.60
2018-09-11T08:53:46.908Z,73.70
2018-09-11T08:56:17.491Z,73.90
2018-09-11T08:58:48.347Z,73.70
2018-09-11T09:01:18.998Z,73.20
2018-09-11T09:03:49.600Z,73.20
2018-09-11T09:06:20.232Z,72.80
2018-09-11T09:08:50.849Z,72.90
2018-09-11T09:11:21.418Z,72.50
2018-09-11T09:13:51.938Z,72.40
2018-09-11T09:16:22.502Z,72.20
2018-09-11T09:18:53.089Z,71.60
2018-09-11T09:21:23.659Z,71.20
2018-09-11T09:23:54.272Z,71.00
2018-09-11T09:26:25.036Z,70.60
2018-09-11T09:28:55.683Z,70.30
2018-09-11T09:31:26.572Z,70.30
2018-09-11T09:33:57.160Z,69.80
2018-09-11T09:36:27.917Z,69.60
2018-09-11T09:38:58.469Z,69.90
2018-09-11T09:41:29.123Z,69.70
2018-09-11T09:43:59.743Z,69.90
2018-09-11T09:46:30.483Z,69.80
2018-09-11T09:49:01.111Z,69.30
2018-09-11T09:51:31.697Z,68.80
2018-09-11T09:54:02.321Z,68.40
2018-09-11T09:56:32.907Z,68.00
2018-09-11T09:59:03.588Z,67.70
2018-09-11T10:01:39.246Z,67.50
2018-09-11T10:04:09.803Z,66.90
2018-09-11T10:06:40.583Z,66.60
2018-09-11T10:09:12.817Z,66.00
2018-09-11T10:11:43.501Z,65.90
2018-09-11T10:14:13.977Z,65.80
2018-09-11T10:16:44.545Z,64.90
2018-09-11T10:19:15.255Z,64.90
2018-09-11T10:21:45.902Z,64.50
2018-09-11T10:24:16.475Z,64.10
2018-09-11T10:26:47.044Z,63.50
2018-09-11T10:29:17.554Z,62.80
2018-09-11T10:31:48.106Z,62.50
2018-09-11T10:34:18.645Z,62.60
2018-09-11T10:36:49.238Z,62.60
2018-09-11T10:39:19.859Z,62.00
2018-09-11T10:41:50.537Z,61.80
2018-09-11T10:44:21.047Z,60.80
2018-09-11T10:46:51.657Z,60.70
2018-09-11T10:49:22.168Z,60.20
2018-09-11T10:51:53.012Z,59.70
2018-09-11T10:54:23.539Z,59.80
2018-09-11T10:56:54.079Z,59.40
2018-09-11T10:59:24.683Z,59.20
2018-09-11T11:01:55.317Z,58.90
2018-09-11T11:04:26.055Z,59.00
2018-09-11T11:06:56.607Z,58.50
2018-09-11T11:09:27.232Z,58.50
2018-09-11T11:11:57.906Z,58.40
2018-09-11T11:14:28.523Z,58.30
2018-09-11T11:16:59.118Z,57.50
2018-09-11T11:19:29.647Z,57.20
2018-09-11T11:22:00.342Z,56.90
2018-09-11T11:24:30.797Z,56.20
2018-09-11T11:27:01.469Z,56.20
2018-09-11T11:29:31.999Z,56.20
2018-09-11T11:32:02.511Z,56.20
2018-09-11T11:34:33.169Z,56.10
2018-09-11T11:37:03.860Z,55.70
2018-09-11T11:39:34.428Z,55.60
2018-09-11T11:42:05.242Z,55.40
2018-09-11T11:44:35.835Z,54.70
2018-09-11T11:47:06.911Z,54.30
2018-09-11T11:49:37.761Z,54.30
2018-09-11T11:52:08.415Z,54.10
2018-09-11T11:54:38.990Z,54.10
2018-09-11T11:57:09.749Z,53.50
2018-09-11T11:59:40.327Z,53.40
2018-09-11T12:02:11.322Z,53.30
2018-09-11T12:04:41.872Z,53.60
2018-09-11T12:07:12.815Z,53.10
2018-09-11T12:09:43.354Z,52.80
2018-09-11T12:12:13.985Z,53.00
2018-09-11T12:14:44.503Z,53.20
2018-09-11T12:17:15.039Z,52.40
2018-09-11T12:19:45.502Z,52.40
2018-09-11T12:22:16.265Z,51.90
2018-09-11T12:24:46.823Z,51.60
2018-09-11T12:27:17.437Z,51.70
2018-09-11T12:29:48.026Z,51.80
2018-09-11T12:32:18.725Z,51.30
2018-09-11T12:34:49.189Z,51.00
2018-09-11T12:37:19.748Z,51.20
2018-09-11T12:39:50.394Z,51.10
2018-09-11T12:42:20.987Z,51.30
2018-09-11T12:44:51.562Z,51.40
2018-09-11T12:47:22.320Z,51.10
2018-09-11T12:49:52.782Z,51.10
2018-09-11T12:52:23.417Z,50.80
2018-09-11T12:54:54.031Z,50.30
2018-09-11T12:57:24.701Z,50.10
2018-09-11T12:59:55.246Z,50.00
2018-09-11T13:02:25.902Z,49.70
2018-09-11T13:04:56.514Z,49.30
2018-09-11T13:07:27.110Z,49.00
2018-09-11T13:09:57.694Z,49.40
2018-09-11T13:12:28.271Z,48.90
2018-09-11T13:14:59.320Z,48.70
2018-09-11T13:17:31.379Z,48.50
2018-09-11T13:20:02.006Z,48.30
2018-09-11T13:22:32.682Z,48.50
2018-09-11T13:25:03.267Z,48.10
2018-09-11T13:27:33.935Z,47.60
2018-09-11T13:30:04.650Z,47.50
2018-09-11T13:32:35.325Z,47.60
2018-09-11T13:35:05.885Z,47.60
2018-09-11T13:37:36.896Z,47.40
2018-09-11T13:40:07.681Z,47.10
2018-09-11T13:42:38.363Z,47.00
2018-09-11T13:45:09.060Z,47.30
2018-09-11T13:47:39.711Z,47.10
2018-09-11T13:50:10.345Z,47.40
2018-09-11T13:52:41.580Z,46.80
2018-09-11T13:55:12.425Z,46.80
2018-09-11T13:57:43.531Z,46.90
2018-09-11T14:00:14.209Z,46.50
2018-09-11T14:02:44.901Z,46.60
2018-09-11T14:05:15.444Z,46.60
2018-09-11T14:07:46.102Z,46.60
2018-09-11T14:10:16.704Z,46.40
2018-09-11T14:12:47.340Z,46.20
2018-09-11T14:15:17.879Z,46.30
2018-09-11T14:17:48.543Z,46.10
2018-09-11T14:20:19.039Z,46.30
2018-09-11T14:22:49.599Z,45.70
2018-09-11T14:25:20.211Z,45.70
2018-09-11T14:27:51.231Z,45.70
2018-09-11T14:30:21.831Z,45.70
2018-09-11T14:32:52.544Z,45.20
2018-09-11T14:35:23.207Z,45.30
2018-09-11T14:37:53.802Z,45.40
2018-09-11T14:40:24.405Z,45.30
2018-09-11T14:42:54.991Z,45.10
2018-09-11T14:45:25.723Z,45.00
2018-09-11T14:47:56.439Z,45.00
2018-09-11T14:50:27.182Z,44.70
2018-09-11T14:52:58.111Z,45.00
2018-09-11T14:55:28.661Z,45.10
2018-09-11T14:57:59.397Z,44.60
2018-09-11T15:00:30.049Z,44.50
2018-09-11T15:03:00.668Z,44.50
2018-09-11T15:05:31.269Z,44.10
2018-09-11T15:08:01.899Z,44.40
2018-09-11T15:10:32.482Z,44.50
2018-09-11T15:13:03.099Z,44.40
2018-09-11T15:15:33.591Z,44.40
2018-09-11T15:18:04.225Z,44.20
2018-09-11T15:20:34.900Z,44.20
2018-09-11T15:23:05.591Z,43.90
2018-09-11T15:25:36.189Z,43.80
2018-09-11T15:28:06.689Z,43.50
2018-09-11T15:30:37.347Z,43.70
2018-09-11T15:33:08.587Z,43.80
2018-09-11T15:35:39.140Z,43.70
2018-09-11T15:38:09.879Z,43.60
2018-09-11T15:40:40.399Z,43.20
2018-09-11T15:43:11.181Z,43.00
2018-09-11T15:45:41.709Z,43.20
2018-09-11T15:48:12.309Z,43.00
2018-09-11T15:50:42.795Z,43.00
2018-09-11T15:53:13.382Z,42.80
2018-09-11T15:55:44.072Z,42.80
2018-09-11T15:58:14.769Z,42.60
2018-09-11T16:00:45.315Z,42.70
2018-09-11T16:03:15.970Z,42.70
2018-09-11T16:05:46.537Z,42.70
2018-09-11T16:08:17.191Z,42.70
2018-09-11T16:10:47.815Z,42.60
2018-09-11T16:13:18.482Z,42.60
2018-09-11T16:15:49.045Z,42.60
2018-09-11T16:18:19.714Z,42.70
2018-09-11T16:20:50.355Z,42.70
2018-09-11T16:23:21.011Z,42.80
2018-09-11T16:25:51.518Z,42.70
2018-09-11T16:28:22.259Z,42.80
2018-09-11T16:30:52.744Z,42.80
2018-09-11T16:33:23.388Z,42.60
2018-09-11T16:35:53.870Z,42.60
2018-09-11T16:38:24.421Z,42.70
2018-09-11T16:40:55.138Z,42.70
2018-09-11T16:43:25.645Z,42.70
2018-09-11T16:45:56.176Z,42.70
2018-09-11T16:48:26.850Z,42.70
2018-09-11T16:50:57.391Z,42.50
2018-09-11T16:53:28.026Z,42.60
2018-09-11T16:55:58.598Z,42.70
2018-09-11T16:58:29.246Z,42.70
2018-09-11T17:00:59.815Z,42.80
2018-09-11T17:03:30.401Z,42.80
2018-09-11T17:06:00.960Z,42.80
2018-09-11T17:08:31.592Z,42.90
2018-09-11T17:11:02.172Z,42.90
2018-09-11T17:13:32.847Z,43.00
2018-09-11T17:16:03.439Z,43.10
2018-09-11T17:18:34.039Z,43.00
2018-09-11T17:21:04.597Z,43.20
2018-09-11T17:23:36.163Z,43.20
2018-09-11T17:26:06.765Z,43.20
2018-09-11T17:28:37.363Z,43.30
2018-09-11T17:31:08.060Z,43.40
2018-09-11T17:33:38.619Z,43.50
2018-09-11T17:36:09.249Z,43.50
2018-09-11T17:38:39.859Z,43.70
2018-09-11T17:41:10.489Z,43.70
2018-09-11T17:43:41.168Z,43.80
2018-09-11T17:46:11.734Z,44.00
2018-09-11T17:48:42.396Z,44.00
2018-09-11T17:51:12.943Z,44.10
2018-09-11T17:53:43.551Z,44.20
2018-09-11T17:56:14.150Z,44.40
2018-09-11T17:58:44.973Z,44.40
2018-09-11T18:01:15.519Z,44.50
2018-09-11T18:03:46.138Z,44.50
2018-09-11T18:06:16.716Z,44.60
2018-09-11T18:08:47.281Z,44.60
2018-09-11T18:11:17.803Z,44.70
2018-09-11T18:13:48.462Z,44.90
2018-09-11T18:16:19.108Z,45.00
2018-09-11T18:18:49.718Z,45.00
2018-09-11T18:21:20.274Z,45.20
2018-09-11T18:23:50.937Z,45.20
2018-09-11T18:26:21.531Z,45.30
2018-09-11T18:28:52.248Z,45.40
2018-09-11T18:31:22.932Z,45.50
2018-09-11T18:33:53.631Z,45.50
2018-09-11T18:36:24.201Z,45.60
2018-09-11T18:38:54.829Z,45.70
2018-09-11T18:41:25.378Z,45.80
2018-09-11T18:43:56.083Z,45.90
2018-09-11T18:46:26.688Z,46.00
2018-09-11T18:48:57.330Z,46.10
2018-09-11T18:51:28.052Z,46.10
2018-09-11T18:53:58.669Z,46.20
2018-09-11T18:56:29.243Z,46.20
2018-09-11T18:58:59.887Z,46.30
2018-09-11T19:01:30.381Z,46.40
2018-09-11T19:04:00.939Z,46.50
2018-09-11T19:06:31.523Z,46.50
2018-09-11T19:09:02.111Z,46.50
2018-09-11T19:11:32.664Z,46.60
2018-09-11T19:14:03.469Z,46.50
2018-09-11T19:16:34.097Z,46.60
2018-09-11T19:19:04.969Z,46.70
2018-09-11T19:21:35.678Z,46.70
2018-09-11T19:24:06.406Z,46.80
2018-09-11T19:26:37.040Z,46.80
2018-09-11T19:29:07.538Z,46.90
2018-09-11T19:31:38.061Z,46.90
2018-09-11T19:34:08.786Z,46.90
2018-09-11T19:36:39.340Z,47.00
2018-09-11T19:39:13.471Z,47.00
2018-09-11T19:41:44.030Z,47.10
2018-09-11T19:44:14.772Z,47.10
2018-09-11T19:46:45.468Z,47.10
2018-09-11T19:49:16.129Z,47.20
2018-09-11T19:51:46.739Z,47.30
2018-09-11T19:54:17.343Z,47.30
2018-09-11T19:56:47.949Z,47.40
2018-09-11T19:59:18.543Z,47.50
2018-09-11T20:01:49.204Z,47.60
2018-09-11T20:04:19.886Z,47.90
2018-09-11T20:06:50.556Z,47.80
2018-09-11T20:09:21.080Z,48.00
2018-09-11T20:11:54.221Z,48.10
2018-09-11T20:14:25.189Z,48.30
2018-09-11T20:16:55.731Z,48.30
2018-09-11T20:19:26.369Z,48.40
2018-09-11T20:21:56.919Z,48.50
2018-09-11T20:24:27.578Z,48.60
2018-09-11T20:26:58.122Z,48.80
2018-09-11T20:29:28.734Z,48.80
2018-09-11T20:31:59.436Z,49.00
2018-09-11T20:34:30.077Z,49.10
2018-09-11T20:37:00.709Z,49.10
2018-09-11T20:39:31.269Z,49.30
2018-09-11T20:42:01.789Z,49.40
2018-09-11T20:44:32.472Z,49.50
2018-09-11T20:47:03.005Z,49.60
2018-09-11T20:49:33.581Z,49.80
2018-09-11T20:52:04.236Z,49.90
2018-09-11T20:54:34.891Z,50.00
2018-09-11T20:57:05.379Z,50.00
2018-09-11T20:59:36.062Z,50.10
2018-09-11T21:02:06.737Z,50.20
2018-09-11T21:04:37.243Z,50.30
2018-09-11T21:07:07.945Z,50.40
2018-09-11T21:09:38.581Z,50.40
2018-09-11T21:12:09.141Z,50.50
2018-09-11T21:14:39.697Z,50.50
2018-09-11T21:17:10.331Z,50.60
2018-09-11T21:19:40.982Z,50.70
2018-09-11T21:22:11.617Z,50.60
2018-09-11T21:24:42.448Z,50.70
2018-09-11T21:27:12.997Z,50.70
2018-09-11T21:29:43.630Z,50.80
2018-09-11T21:32:14.211Z,50.80
2018-09-11T21:34:44.779Z,51.40
2018-09-11T21:37:15.279Z,50.90
2018-09-11T21:39:45.849Z,50.90
2018-09-11T21:42:16.446Z,51.00
2018-09-11T21:44:47.281Z,51.00
2018-09-11T21:47:17.844Z,51.10
2018-09-11T21:49:48.611Z,51.20
2018-09-11T21:52:19.201Z,51.30
2018-09-11T21:54:49.958Z,51.30
2018-09-11T21:57:20.769Z,51.30
2018-09-11T21:59:51.359Z,52.00
2018-09-11T22:02:22.089Z,51.60
2018-09-11T22:04:52.712Z,51.50
2018-09-11T22:07:23.334Z,51.60
2018-09-11T22:09:53.900Z,51.60
2018-09-11T22:12:24.445Z,52.20
2018-09-11T22:14:54.993Z,51.70
2018-09-11T22:17:25.556Z,51.80
2018-09-11T22:19:56.425Z,51.90
2018-09-11T22:22:26.986Z,52.00
2018-09-11T22:24:57.751Z,52.00
2018-09-11T22:27:28.262Z,52.10
2018-09-11T22:29:58.791Z,52.10
2018-09-11T22:32:29.954Z,52.20
2018-09-11T22:35:00.505Z,52.20
2018-09-11T22:37:31.138Z,52.20
2018-09-11T22:40:01.733Z,52.30
2018-09-11T22:42:32.201Z,52.40
2018-09-11T22:45:02.762Z,52.50
2018-09-11T22:47:33.289Z,52.60
2018-09-11T22:50:03.936Z,52.60
2018-09-11T22:52:34.418Z,52.60
2018-09-11T22:55:05.090Z,52.70
2018-09-11T22:57:35.933Z,52.70
2018-09-11T23:00:06.815Z,52.90
2018-09-11T23:02:37.361Z,53.00
2018-09-11T23:05:07.962Z,53.00
2018-09-11T23:07:38.463Z,53.20
2018-09-11T23:10:09.095Z,53.20
2018-09-11T23:12:39.605Z,53.30
2018-09-11T23:15:10.194Z,53.40
2018-09-11T23:17:40.722Z,53.50
2018-09-11T23:20:11.676Z,53.60
2018-09-11T23:22:42.189Z,53.70
2018-09-11T23:25:12.885Z,53.70
2018-09-11T23:27:43.365Z,53.80
2018-09-11T23:30:13.978Z,53.80
2018-09-11T23:32:44.606Z,54.10
2018-09-11T23:35:15.199Z,54.10
2018-09-11T23:37:45.745Z,54.10
2018-09-11T23:40:16.306Z,54.20
2018-09-11T23:42:46.884Z,54.20
2018-09-11T23:45:17.478Z,54.30
2018-09-11T23:47:47.996Z,54.40
2018-09-11T23:50:18.647Z,54.50
2018-09-11T23:52:49.174Z,54.50
2018-09-11T23:55:19.843Z,54.50
2018-09-11T23:57:50.681Z,54.60
